hintergrundbild

 METAR AND TAF INFORMATION
METAR FOR LDDU
ADDS - METARS form results

(1732 UTC 19 January 2022)
Data provider http://aviationweather.gov/metar/data/
 
METAR text: LDDU 191730Z 08005KT CAVOK 06/M02 Q1028 NOSIG
Conditions at: LDDU (DUBROVNIK-CILIPI, HR) observed 1730 UTC 19 January 2022
Temperature: 6.0°C (43°F)
Dewpoint: -2.0°C (28°F) [RH = 56%]
Pressure (altimeter): 30.35 inches Hg (1028.0 mb)
Winds: from the E (80 degrees) at 6 MPH (5 knots; 2.6 m/s)
Visibility: 6 or more miles (10+ km)
Ceiling: ceiling and visibility are OK
Clouds: unknown
Weather: no significant weather observed at this time

METAR text: LDDU 191700Z 10006KT CAVOK 06/M02 Q1028 NOSIG
Conditions at: LDDU (DUBROVNIK-CILIPI, HR) observed 1700 UTC 19 January 2022
Temperature: 6.0°C (43°F)
Dewpoint: -2.0°C (28°F) [RH = 56%]
Pressure (altimeter): 30.35 inches Hg (1028.0 mb)
Winds: from the E (100 degrees) at 7 MPH (6 knots; 3.1 m/s)
Visibility: 6 or more miles (10+ km)
Ceiling: ceiling and visibility are OK
Clouds: unknown
Weather: no significant weather observed at this time

Forecast for: LDDU (DUBROVNIK-CILIPI, HR)
Text: TAF LDDU 191725Z 1918/2018 09007KT CAVOK TX09/2012Z TN03/1922Z
Forecast period: 1800 UTC 19 January 2022 to 0700 UTC 20 January 2022
Forecast type: FROM: standard forecast or significant change
Winds: from the E (90 degrees) at 8 MPH (7 knots; 3.6 m/s)
Visibility: 6 or more miles (10+ km)
Ceiling: unknown
Clouds: missing
Weather: no significant weather forecast for this period
Text: BECMG 2007/2009 11012KT
Forecast period: 0700 to 1800 UTC 20 January 2022
Forecast type: BECOMING: Conditions expected to become as follows by 0900 UTC 20 January 2022
Winds: from the ESE (110 degrees) at 14 MPH (12 knots; 6.2 m/s)
Visibility: 6 or more miles (10+ km)
Ceiling: unknown
Clouds: missing
Weather: no significant weather forecast for this period
Text: PROB30
Forecast period: 1200 to 1800 UTC 20 January 2022
Forecast type: TEMPORARY: The following changes expected for less than half the time period
Visibility: missing
Ceiling: 2500 feet AGL
Clouds: few clouds at 2000 feet AGL
broken clouds at 2500 feet AGL
Weather: SHRA  (rain showers)

 AIRPORT MAP

 RUNWAY INFORMATION
Runway 12 Runway length 10827 ft Runway width 148 ft
Runway elevation 519 ft Runway displaced threshold 488 ft Runway heading 118
Runway 30 Runway length 10827 ft Runway width 148 ft
Runway elevation 484 ft Runway displaced threshold 0 ft Runway heading 298

 AIRPORT FREQUENCIES
Type APP Name APP Frequency 123.6 MHZ
Type TWR Name TWR Frequency 129.5 MHZ

 AIRPORT NEAR NAVIGATION AIDS
Type NDB Name Dubrovnik Frequency 397 KHZ
Type VOR-DME Name Dubrovnik Frequency 115400 KHZ
Type NDB Name Dubrovnik Frequency 414 KHZ
Type NDB Name Kolocep Frequency 318 KHZ



Impressum